West Valley City, UT

6:38 PM MDT on May 25, 2015 (GMT -0600)
West Jordan-Angel Landing | | Change Station
CLOSE
Current Station
Personal Weather Station
Location: West Jordan, UT
Elevation: 4550 ft
Nearby Weather Stations

Elev 4550 ft 40.61 °N, 111.95 °W | Updated 8 seconds ago

Overcast
Overcast
67.6 °F
Feels Like 67.6 °F
N
0.0
Wind Variable Wind from SW
Gusts 1.0 mph

Today
High -- | Low -- °F
--% Chance of Precip.
Yesterday
High -- | Low -- °F
Precip. -- in
6:03 AM 8:46 PM
First Quarter, 53% visible
Pressure 29.82 in
Visibility 10.0 miles
Clouds Few 5000 ft
Scattered Clouds 10000 ft
Scattered Clouds 18000 ft
Mostly Cloudy 22000 ft
Dew Point 47 °F
Humidity 47%
Rainfall 0.02 in
Snow Depth Not available.
UV 2 out of 12
Pollen 6.10 out of 12
Air Quality Not available.
Flu Activity Sporadic
METAR KSLC 252353Z 32004KT 10SM FEW050TCU SCT100 SCT180 BKN220 22/05 A2993 RMK AO2 SLP097 CB DSNT NW TCU E AND SW T02170050 10217 20172 56007 $

More Conditions Fewer Conditions

Pressure 29.82 in
Visibility 10.0 miles
Clouds Few 5000 ft
Scattered Clouds 10000 ft
Scattered Clouds 18000 ft
Mostly Cloudy 22000 ft
Dew Point 47 °F
Humidity 47%
Rainfall 0.02 in
Snow Depth Not available.
UV 2 out of 12
Pollen 6.10 out of 12
Air Quality Not available.
Flu Activity Sporadic
METAR KSLC 252353Z 32004KT 10SM FEW050TCU SCT100 SCT180 BKN220 22/05 A2993 RMK AO2 SLP097 CB DSNT NW TCU E AND SW T02170050 10217 20172 56007 $

More Conditions Fewer Conditions

10-Day Weather Forecast

Almanac

Astronomy

May. 25, 2015 Rise Set
Actual Time
Civil Twilight
Nautical Twilight
Astronomical Twilight
Moon
Length of Visible Light
Length of Day
Tomorrow will be .
, % of the Moon is Illuminated

Today's Extremes

State Highs State Lows

Community

WunderPhotos

Upload Photos

1,824,187 photos uploaded!

WunderBlogs® & News

Nearby

Air Quality

  Air Quality AQ Index Pollutant
Not available.

Snow Depth

Station Depth Elevation

Earthquake Activity

City Distance Mag. Time & Date
Minimum magnitude displayed is 2.5.

Coastal Water Temperatures

Place Temperature

Stations

Nearby Weather Stations

Station Location Temp. Windchill Dew Point Humidity Wind Precip. Elev Updated Type